sensor_id;sensor_type;location;lat;lon;timestamp;temperature;humidity
45643;DHT22;31358;46.008;11.144;2022-11-21T00:00:16;5.10;99.90
45643;DHT22;31358;46.008;11.144;2022-11-21T00:02:42;5.30;99.90
45643;DHT22;31358;46.008;11.144;2022-11-21T00:05:08;5.40;99.90
45643;DHT22;31358;46.008;11.144;2022-11-21T00:07:34;5.40;99.90
45643;DHT22;31358;46.008;11.144;2022-11-21T00:10:00;5.30;99.90
45643;DHT22;31358;46.008;11.144;2022-11-21T00:12:25;5.30;99.90
45643;DHT22;31358;46.008;11.144;2022-11-21T00:14:51;5.30;99.90
45643;DHT22;31358;46.008;11.144;2022-11-21T00:17:17;5.30;99.90
45643;DHT22;31358;46.008;11.144;2022-11-21T00:19:42;5.30;99.90
45643;DHT22;31358;46.008;11.144;2022-11-21T00:22:08;5.40;99.90
45643;DHT22;31358;46.008;11.144;2022-11-21T00:24:34;5.40;99.90
45643;DHT22;31358;46.008;11.144;2022-11-21T00:26:59;5.50;99.90
45643;DHT22;31358;46.008;11.144;2022-11-21T00:29:25;5.50;99.90
45643;DHT22;31358;46.008;11.144;2022-11-21T00:31:51;5.20;99.90
45643;DHT22;31358;46.008;11.144;2022-11-21T00:34:16;5.10;99.90
45643;DHT22;31358;46.008;11.144;2022-11-21T00:36:42;5.20;99.90
45643;DHT22;31358;46.008;11.144;2022-11-21T00:39:08;5.10;99.90
45643;DHT22;31358;46.008;11.144;2022-11-21T00:41:33;4.90;99.90
45643;DHT22;31358;46.008;11.144;2022-11-21T00:43:59;4.80;99.90
45643;DHT22;31358;46.008;11.144;2022-11-21T00:46:25;4.60;99.90
45643;DHT22;31358;46.008;11.144;2022-11-21T00:48:50;4.60;99.90
45643;DHT22;31358;46.008;11.144;2022-11-21T00:51:16;4.70;99.90
45643;DHT22;31358;46.008;11.144;2022-11-21T00:53:42;4.80;99.90
45643;DHT22;31358;46.008;11.144;2022-11-21T00:56:07;4.50;99.90
45643;DHT22;31358;46.008;11.144;2022-11-21T00:58:33;4.50;99.90
45643;DHT22;31358;46.008;11.144;2022-11-21T01:01:09;4.60;99.90
45643;DHT22;31358;46.008;11.144;2022-11-21T01:03:36;4.70;99.90
45643;DHT22;31358;46.008;11.144;2022-11-21T01:06:07;4.80;99.90
45643;DHT22;31358;46.008;11.144;2022-11-21T01:08:35;4.90;99.90
45643;DHT22;31358;46.008;11.144;2022-11-21T01:11:03;4.70;99.90
45643;DHT22;31358;46.008;11.144;2022-11-21T01:13:28;4.50;99.90
45643;DHT22;31358;46.008;11.144;2022-11-21T01:15:54;4.40;99.90
45643;DHT22;31358;46.008;11.144;2022-11-21T01:18:20;4.30;99.90
45643;DHT22;31358;46.008;11.144;2022-11-21T01:20:45;4.30;99.90
45643;DHT22;31358;46.008;11.144;2022-11-21T01:23:11;4.30;99.90
45643;DHT22;31358;46.008;11.144;2022-11-21T01:25:37;4.20;99.90
45643;DHT22;31358;46.008;11.144;2022-11-21T01:28:02;4.20;99.90
45643;DHT22;31358;46.008;11.144;2022-11-21T01:30:28;4.10;99.90
45643;DHT22;31358;46.008;11.144;2022-11-21T01:32:54;3.80;99.90
45643;DHT22;31358;46.008;11.144;2022-11-21T01:35:19;3.80;99.90
45643;DHT22;31358;46.008;11.144;2022-11-21T01:37:48;3.90;99.90
45643;DHT22;31358;46.008;11.144;2022-11-21T01:40:14;3.90;99.90
45643;DHT22;31358;46.008;11.144;2022-11-21T01:42:51;3.90;99.90
45643;DHT22;31358;46.008;11.144;2022-11-21T01:50:55;4.00;99.90
45643;DHT22;31358;46.008;11.144;2022-11-21T01:53:25;3.90;99.90
45643;DHT22;31358;46.008;11.144;2022-11-21T01:55:51;3.90;99.90
45643;DHT22;31358;46.008;11.144;2022-11-21T01:58:17;3.80;99.90
45643;DHT22;31358;46.008;11.144;2022-11-21T02:00:44;3.50;99.90
45643;DHT22;31358;46.008;11.144;2022-11-21T02:03:14;3.60;99.90
45643;DHT22;31358;46.008;11.144;2022-11-21T02:05:41;3.70;99.90
45643;DHT22;31358;46.008;11.144;2022-11-21T02:08:19;3.70;99.90
45643;DHT22;31358;46.008;11.144;2022-11-21T02:10:53;3.80;99.90
45643;DHT22;31358;46.008;11.144;2022-11-21T02:13:22;3.80;99.90
45643;DHT22;31358;46.008;11.144;2022-11-21T02:15:48;3.80;99.90
45643;DHT22;31358;46.008;11.144;2022-11-21T02:18:13;3.80;99.90
45643;DHT22;31358;46.008;11.144;2022-11-21T02:20:41;3.70;99.90
45643;DHT22;31358;46.008;11.144;2022-11-21T02:23:23;3.60;99.90
45643;DHT22;31358;46.008;11.144;2022-11-21T02:25:50;3.70;99.90
45643;DHT22;31358;46.008;11.144;2022-11-21T02:28:20;3.50;99.90
45643;DHT22;31358;46.008;11.144;2022-11-21T02:30:48;3.50;99.90
45643;DHT22;31358;46.008;11.144;2022-11-21T02:33:14;3.60;99.90
45643;DHT22;31358;46.008;11.144;2022-11-21T02:35:40;3.70;99.90
45643;DHT22;31358;46.008;11.144;2022-11-21T02:38:13;3.70;99.90
45643;DHT22;31358;46.008;11.144;2022-11-21T02:40:47;3.70;99.90
45643;DHT22;31358;46.008;11.144;2022-11-21T02:43:29;3.70;99.90
45643;DHT22;31358;46.008;11.144;2022-11-21T02:45:55;3.80;99.90
45643;DHT22;31358;46.008;11.144;2022-11-21T02:48:22;3.80;99.90
45643;DHT22;31358;46.008;11.144;2022-11-21T02:50:47;3.80;99.90
45643;DHT22;31358;46.008;11.144;2022-11-21T02:53:16;3.90;99.90
45643;DHT22;31358;46.008;11.144;2022-11-21T02:55:42;3.80;99.90
45643;DHT22;31358;46.008;11.144;2022-11-21T02:58:08;3.70;99.90
45643;DHT22;31358;46.008;11.144;2022-11-21T03:00:35;3.70;99.90
45643;DHT22;31358;46.008;11.144;2022-11-21T03:03:01;3.90;99.90
45643;DHT22;31358;46.008;11.144;2022-11-21T03:05:27;3.70;99.90
45643;DHT22;31358;46.008;11.144;2022-11-21T03:07:53;3.60;99.90
45643;DHT22;31358;46.008;11.144;2022-11-21T03:10:18;3.60;99.90
45643;DHT22;31358;46.008;11.144;2022-11-21T03:12:44;3.60;99.90
45643;DHT22;31358;46.008;11.144;2022-11-21T03:15:12;3.70;99.90
45643;DHT22;31358;46.008;11.144;2022-11-21T03:17:39;3.80;99.90
45643;DHT22;31358;46.008;11.144;2022-11-21T03:20:05;3.80;99.90
45643;DHT22;31358;46.008;11.144;2022-11-21T03:22:31;3.80;99.90
45643;DHT22;31358;46.008;11.144;2022-11-21T03:24:57;3.80;99.90
45643;DHT22;31358;46.008;11.144;2022-11-21T03:27:23;3.80;99.90
45643;DHT22;31358;46.008;11.144;2022-11-21T03:29:48;3.80;99.90
45643;DHT22;31358;46.008;11.144;2022-11-21T03:32:14;3.70;99.90
45643;DHT22;31358;46.008;11.144;2022-11-21T03:34:39;3.70;99.90
45643;DHT22;31358;46.008;11.144;2022-11-21T03:37:05;3.60;99.90
45643;DHT22;31358;46.008;11.144;2022-11-21T03:39:31;3.50;99.90
45643;DHT22;31358;46.008;11.144;2022-11-21T03:41:57;3.40;99.90
45643;DHT22;31358;46.008;11.144;2022-11-21T03:44:23;3.50;99.90
45643;DHT22;31358;46.008;11.144;2022-11-21T03:46:48;3.70;99.90
45643;DHT22;31358;46.008;11.144;2022-11-21T03:49:14;3.90;99.90
45643;DHT22;31358;46.008;11.144;2022-11-21T03:51:42;3.90;99.90
45643;DHT22;31358;46.008;11.144;2022-11-21T03:54:08;3.90;99.90
45643;DHT22;31358;46.008;11.144;2022-11-21T03:56:34;3.90;99.90
45643;DHT22;31358;46.008;11.144;2022-11-21T03:59:00;3.90;99.90
45643;DHT22;31358;46.008;11.144;2022-11-21T04:01:26;3.80;99.90
45643;DHT22;31358;46.008;11.144;2022-11-21T04:03:52;3.90;99.90
45643;DHT22;31358;46.008;11.144;2022-11-21T04:06:19;3.90;99.90
45643;DHT22;31358;46.008;11.144;2022-11-21T04:08:46;3.80;99.90
45643;DHT22;31358;46.008;11.144;2022-11-21T04:11:12;3.70;99.90
45643;DHT22;31358;46.008;11.144;2022-11-21T04:13:38;3.60;99.90
45643;DHT22;31358;46.008;11.144;2022-11-21T04:16:04;3.70;99.90
45643;DHT22;31358;46.008;11.144;2022-11-21T04:18:30;3.70;99.90
45643;DHT22;31358;46.008;11.144;2022-11-21T04:23:22;3.20;99.90
45643;DHT22;31358;46.008;11.144;2022-11-21T04:25:48;3.20;99.90
45643;DHT22;31358;46.008;11.144;2022-11-21T04:28:14;3.30;99.90
45643;DHT22;31358;46.008;11.144;2022-11-21T04:30:39;3.40;99.90
45643;DHT22;31358;46.008;11.144;2022-11-21T04:33:05;3.30;99.90
45643;DHT22;31358;46.008;11.144;2022-11-21T04:35:31;3.40;99.90
45643;DHT22;31358;46.008;11.144;2022-11-21T04:37:57;3.40;99.90
45643;DHT22;31358;46.008;11.144;2022-11-21T04:40:23;3.10;99.90
45643;DHT22;31358;46.008;11.144;2022-11-21T04:42:49;2.90;99.90
45643;DHT22;31358;46.008;11.144;2022-11-21T04:45:16;3.00;99.90
45643;DHT22;31358;46.008;11.144;2022-11-21T04:47:43;3.00;99.90
45643;DHT22;31358;46.008;11.144;2022-11-21T04:50:11;3.00;99.90
45643;DHT22;31358;46.008;11.144;2022-11-21T04:52:37;3.10;99.90
45643;DHT22;31358;46.008;11.144;2022-11-21T04:55:04;3.10;99.90
45643;DHT22;31358;46.008;11.144;2022-11-21T04:57:30;3.00;99.90
45643;DHT22;31358;46.008;11.144;2022-11-21T04:59:56;3.10;99.90
45643;DHT22;31358;46.008;11.144;2022-11-21T05:02:22;2.90;99.90
45643;DHT22;31358;46.008;11.144;2022-11-21T05:04:48;2.90;99.90
45643;DHT22;31358;46.008;11.144;2022-11-21T05:07:14;2.90;99.90
45643;DHT22;31358;46.008;11.144;2022-11-21T05:09:40;3.00;99.90
45643;DHT22;31358;46.008;11.144;2022-11-21T05:12:07;3.10;99.90
45643;DHT22;31358;46.008;11.144;2022-11-21T05:14:52;3.20;99.90
45643;DHT22;31358;46.008;11.144;2022-11-21T05:17:17;3.10;99.90
45643;DHT22;31358;46.008;11.144;2022-11-21T05:19:43;3.00;99.90
45643;DHT22;31358;46.008;11.144;2022-11-21T05:22:08;3.10;99.90
45643;DHT22;31358;46.008;11.144;2022-11-21T05:24:34;2.80;99.90
45643;DHT22;31358;46.008;11.144;2022-11-21T05:27:00;2.80;99.90
45643;DHT22;31358;46.008;11.144;2022-11-21T05:29:26;2.80;99.90
45643;DHT22;31358;46.008;11.144;2022-11-21T05:31:51;2.50;99.90
45643;DHT22;31358;46.008;11.144;2022-11-21T05:34:17;2.40;99.90
45643;DHT22;31358;46.008;11.144;2022-11-21T05:36:42;2.30;99.90
45643;DHT22;31358;46.008;11.144;2022-11-21T05:39:08;2.40;99.90
45643;DHT22;31358;46.008;11.144;2022-11-21T05:41:34;2.40;99.90
45643;DHT22;31358;46.008;11.144;2022-11-21T05:43:59;2.50;99.90
45643;DHT22;31358;46.008;11.144;2022-11-21T05:46:25;2.60;99.90
45643;DHT22;31358;46.008;11.144;2022-11-21T05:48:52;2.70;99.90
45643;DHT22;31358;46.008;11.144;2022-11-21T05:51:18;2.90;99.90
45643;DHT22;31358;46.008;11.144;2022-11-21T05:53:45;2.90;99.90
45643;DHT22;31358;46.008;11.144;2022-11-21T05:56:13;3.00;99.90
45643;DHT22;31358;46.008;11.144;2022-11-21T05:58:40;2.70;99.90
45643;DHT22;31358;46.008;11.144;2022-11-21T06:01:07;2.50;99.90
45643;DHT22;31358;46.008;11.144;2022-11-21T06:03:36;2.50;99.90
45643;DHT22;31358;46.008;11.144;2022-11-21T06:06:11;2.70;99.90
45643;DHT22;31358;46.008;11.144;2022-11-21T06:08:39;2.80;99.90
45643;DHT22;31358;46.008;11.144;2022-11-21T06:11:06;2.80;99.90
45643;DHT22;31358;46.008;11.144;2022-11-21T06:13:32;2.80;99.90
45643;DHT22;31358;46.008;11.144;2022-11-21T06:18:29;2.70;99.90
45643;DHT22;31358;46.008;11.144;2022-11-21T06:21:03;2.70;99.90
45643;DHT22;31358;46.008;11.144;2022-11-21T06:23:29;2.80;99.90
45643;DHT22;31358;46.008;11.144;2022-11-21T06:25:56;2.60;99.90
45643;DHT22;31358;46.008;11.144;2022-11-21T06:28:22;2.60;99.90
45643;DHT22;31358;46.008;11.144;2022-11-21T06:30:48;2.60;99.90
45643;DHT22;31358;46.008;11.144;2022-11-21T06:33:16;2.70;99.90
45643;DHT22;31358;46.008;11.144;2022-11-21T06:35:42;2.70;99.90
45643;DHT22;31358;46.008;11.144;2022-11-21T06:38:09;2.60;99.90
45643;DHT22;31358;46.008;11.144;2022-11-21T06:40:37;2.60;99.90
45643;DHT22;31358;46.008;11.144;2022-11-21T06:43:02;2.50;99.90
45643;DHT22;31358;46.008;11.144;2022-11-21T06:45:28;2.50;99.90
45643;DHT22;31358;46.008;11.144;2022-11-21T06:47:54;2.40;99.90
45643;DHT22;31358;46.008;11.144;2022-11-21T06:50:19;2.60;99.90
45643;DHT22;31358;46.008;11.144;2022-11-21T06:52:45;2.60;99.90
45643;DHT22;31358;46.008;11.144;2022-11-21T06:55:11;2.60;99.90
45643;DHT22;31358;46.008;11.144;2022-11-21T06:57:36;2.50;99.90
45643;DHT22;31358;46.008;11.144;2022-11-21T07:00:03;2.40;99.90
45643;DHT22;31358;46.008;11.144;2022-11-21T07:02:29;2.50;99.90
45643;DHT22;31358;46.008;11.144;2022-11-21T07:04:55;2.60;99.90
45643;DHT22;31358;46.008;11.144;2022-11-21T07:07:21;2.80;99.90
45643;DHT22;31358;46.008;11.144;2022-11-21T07:09:46;2.60;99.90
45643;DHT22;31358;46.008;11.144;2022-11-21T07:12:12;2.60;99.90
45643;DHT22;31358;46.008;11.144;2022-11-21T07:14:56;2.80;99.90
45643;DHT22;31358;46.008;11.144;2022-11-21T07:17:22;2.70;99.90
45643;DHT22;31358;46.008;11.144;2022-11-21T07:19:48;2.70;99.90
45643;DHT22;31358;46.008;11.144;2022-11-21T07:22:13;2.60;99.90
45643;DHT22;31358;46.008;11.144;2022-11-21T07:24:39;2.70;99.90
45643;DHT22;31358;46.008;11.144;2022-11-21T07:27:05;2.70;99.90
45643;DHT22;31358;46.008;11.144;2022-11-21T07:29:30;3.00;99.90
45643;DHT22;31358;46.008;11.144;2022-11-21T07:31:56;3.00;99.90
45643;DHT22;31358;46.008;11.144;2022-11-21T07:34:22;2.90;99.90
45643;DHT22;31358;46.008;11.144;2022-11-21T07:36:47;3.00;99.90
45643;DHT22;31358;46.008;11.144;2022-11-21T07:39:13;3.30;99.90
45643;DHT22;31358;46.008;11.144;2022-11-21T07:41:38;3.30;99.90
45643;DHT22;31358;46.008;11.144;2022-11-21T07:44:04;3.20;99.90
45643;DHT22;31358;46.008;11.144;2022-11-21T07:46:30;3.10;99.90
45643;DHT22;31358;46.008;11.144;2022-11-21T07:48:55;3.10;99.90
45643;DHT22;31358;46.008;11.144;2022-11-21T07:51:21;3.10;99.90
45643;DHT22;31358;46.008;11.144;2022-11-21T07:53:46;3.00;99.90
45643;DHT22;31358;46.008;11.144;2022-11-21T07:56:12;3.00;99.90
45643;DHT22;31358;46.008;11.144;2022-11-21T07:58:38;3.10;99.90
45643;DHT22;31358;46.008;11.144;2022-11-21T08:01:05;3.10;99.90
45643;DHT22;31358;46.008;11.144;2022-11-21T08:03:32;3.10;99.90
45643;DHT22;31358;46.008;11.144;2022-11-21T08:06:01;3.00;99.90
45643;DHT22;31358;46.008;11.144;2022-11-21T08:08:28;3.10;99.90
45643;DHT22;31358;46.008;11.144;2022-11-21T08:10:54;2.90;99.90
45643;DHT22;31358;46.008;11.144;2022-11-21T08:13:19;2.90;99.90
45643;DHT22;31358;46.008;11.144;2022-11-21T08:15:45;2.80;99.90
45643;DHT22;31358;46.008;11.144;2022-11-21T08:18:13;2.80;99.90
45643;DHT22;31358;46.008;11.144;2022-11-21T08:20:39;2.70;99.90
45643;DHT22;31358;46.008;11.144;2022-11-21T08:23:05;2.60;99.90
45643;DHT22;31358;46.008;11.144;2022-11-21T08:25:41;2.70;99.90
45643;DHT22;31358;46.008;11.144;2022-11-21T08:28:08;2.70;99.90
45643;DHT22;31358;46.008;11.144;2022-11-21T08:30:34;2.60;99.90
45643;DHT22;31358;46.008;11.144;2022-11-21T08:33:00;2.60;99.90
45643;DHT22;31358;46.008;11.144;2022-11-21T08:35:27;2.70;99.90
45643;DHT22;31358;46.008;11.144;2022-11-21T08:37:59;3.00;99.90
45643;DHT22;31358;46.008;11.144;2022-11-21T08:40:27;3.00;99.90
45643;DHT22;31358;46.008;11.144;2022-11-21T08:43:00;3.00;99.90
45643;DHT22;31358;46.008;11.144;2022-11-21T08:45:27;2.90;99.90
45643;DHT22;31358;46.008;11.144;2022-11-21T08:47:53;2.80;99.90
45643;DHT22;31358;46.008;11.144;2022-11-21T08:50:19;2.80;99.90
45643;DHT22;31358;46.008;11.144;2022-11-21T08:52:45;2.80;99.90
45643;DHT22;31358;46.008;11.144;2022-11-21T08:55:10;3.00;99.90
45643;DHT22;31358;46.008;11.144;2022-11-21T08:57:39;2.90;99.90
45643;DHT22;31358;46.008;11.144;2022-11-21T09:00:06;3.00;99.90
45643;DHT22;31358;46.008;11.144;2022-11-21T09:02:34;3.20;99.90
45643;DHT22;31358;46.008;11.144;2022-11-21T09:05:00;3.30;99.90
45643;DHT22;31358;46.008;11.144;2022-11-21T09:07:26;3.20;99.90
45643;DHT22;31358;46.008;11.144;2022-11-21T09:09:51;3.20;99.90
45643;DHT22;31358;46.008;11.144;2022-11-21T09:12:17;3.20;99.90
45643;DHT22;31358;46.008;11.144;2022-11-21T09:14:43;3.20;99.90
45643;DHT22;31358;46.008;11.144;2022-11-21T09:17:27;3.20;99.90
45643;DHT22;31358;46.008;11.144;2022-11-21T09:20:11;3.10;99.90
45643;DHT22;31358;46.008;11.144;2022-11-21T09:22:36;3.10;99.90
45643;DHT22;31358;46.008;11.144;2022-11-21T09:25:02;3.10;99.90
45643;DHT22;31358;46.008;11.144;2022-11-21T09:27:29;3.10;99.90
45643;DHT22;31358;46.008;11.144;2022-11-21T09:29:55;3.20;99.90
45643;DHT22;31358;46.008;11.144;2022-11-21T09:32:21;3.30;99.90
45643;DHT22;31358;46.008;11.144;2022-11-21T09:34:46;3.50;99.90
45643;DHT22;31358;46.008;11.144;2022-11-21T09:37:12;3.70;99.90
45643;DHT22;31358;46.008;11.144;2022-11-21T09:39:38;3.70;99.90
45643;DHT22;31358;46.008;11.144;2022-11-21T09:45:14;3.80;99.90
45643;DHT22;31358;46.008;11.144;2022-11-21T09:47:46;3.80;99.90
45643;DHT22;31358;46.008;11.144;2022-11-21T09:52:40;3.70;99.90
45643;DHT22;31358;46.008;11.144;2022-11-21T09:55:23;3.70;99.90
45643;DHT22;31358;46.008;11.144;2022-11-21T09:57:52;3.70;99.90
45643;DHT22;31358;46.008;11.144;2022-11-21T10:00:26;3.60;99.90
45643;DHT22;31358;46.008;11.144;2022-11-21T10:02:53;3.70;99.90
45643;DHT22;31358;46.008;11.144;2022-11-21T10:05:40;3.60;99.90
45643;DHT22;31358;46.008;11.144;2022-11-21T10:08:25;3.60;99.90
45643;DHT22;31358;46.008;11.144;2022-11-21T10:16:48;4.10;99.90
45643;DHT22;31358;46.008;11.144;2022-11-21T10:25:19;4.70;99.90
45643;DHT22;31358;46.008;11.144;2022-11-21T10:27:55;4.90;99.90
45643;DHT22;31358;46.008;11.144;2022-11-21T10:30:22;4.90;99.90
45643;DHT22;31358;46.008;11.144;2022-11-21T10:32:57;4.90;99.90
45643;DHT22;31358;46.008;11.144;2022-11-21T10:35:40;5.10;99.90
45643;DHT22;31358;46.008;11.144;2022-11-21T10:38:21;5.30;99.90
45643;DHT22;31358;46.008;11.144;2022-11-21T10:41:00;5.20;99.90
45643;DHT22;31358;46.008;11.144;2022-11-21T10:43:52;5.20;99.90
45643;DHT22;31358;46.008;11.144;2022-11-21T10:46:37;5.50;99.90
45643;DHT22;31358;46.008;11.144;2022-11-21T10:49:03;5.70;99.90
45643;DHT22;31358;46.008;11.144;2022-11-21T10:52:06;5.90;99.90
45643;DHT22;31358;46.008;11.144;2022-11-21T10:55:02;6.00;99.70
45643;DHT22;31358;46.008;11.144;2022-11-21T10:57:38;5.90;98.70
45643;DHT22;31358;46.008;11.144;2022-11-21T11:02:36;6.00;98.70
45643;DHT22;31358;46.008;11.144;2022-11-21T11:05:32;6.10;98.80
45643;DHT22;31358;46.008;11.144;2022-11-21T11:10:27;6.40;99.00
45643;DHT22;31358;46.008;11.144;2022-11-21T11:12:53;6.40;98.80
45643;DHT22;31358;46.008;11.144;2022-11-21T11:18:59;6.40;97.70
45643;DHT22;31358;46.008;11.144;2022-11-21T11:21:40;6.60;97.80
45643;DHT22;31358;46.008;11.144;2022-11-21T11:29:18;6.90;97.70
45643;DHT22;31358;46.008;11.144;2022-11-21T11:32:16;6.80;97.40
45643;DHT22;31358;46.008;11.144;2022-11-21T11:35:00;6.70;97.20
45643;DHT22;31358;46.008;11.144;2022-11-21T11:37:40;6.80;97.20
45643;DHT22;31358;46.008;11.144;2022-11-21T11:40:17;6.80;96.90
45643;DHT22;31358;46.008;11.144;2022-11-21T11:42:47;6.80;97.20
45643;DHT22;31358;46.008;11.144;2022-11-21T11:48:49;7.30;97.00
45643;DHT22;31358;46.008;11.144;2022-11-21T11:51:21;7.20;96.40
45643;DHT22;31358;46.008;11.144;2022-11-21T11:53:52;7.30;96.80
45643;DHT22;31358;46.008;11.144;2022-11-21T11:56:27;7.40;96.30
45643;DHT22;31358;46.008;11.144;2022-11-21T12:02:05;7.70;96.70
45643;DHT22;31358;46.008;11.144;2022-11-21T12:04:51;7.80;96.70
45643;DHT22;31358;46.008;11.144;2022-11-21T12:12:42;7.90;96.50
45643;DHT22;31358;46.008;11.144;2022-11-21T12:15:31;7.90;96.70
45643;DHT22;31358;46.008;11.144;2022-11-21T12:23:11;7.90;96.60
45643;DHT22;31358;46.008;11.144;2022-11-21T12:25:43;7.90;96.80
45643;DHT22;31358;46.008;11.144;2022-11-21T12:28:23;7.90;96.70
45643;DHT22;31358;46.008;11.144;2022-11-21T12:34:03;7.80;96.40
45643;DHT22;31358;46.008;11.144;2022-11-21T12:48:11;8.20;96.90
45643;DHT22;31358;46.008;11.144;2022-11-21T12:51:12;8.30;97.00
45643;DHT22;31358;46.008;11.144;2022-11-21T12:55:06;8.40;96.90
45643;DHT22;31358;46.008;11.144;2022-11-21T12:59:30;8.30;97.00
45643;DHT22;31358;46.008;11.144;2022-11-21T13:02:03;8.20;97.00
45643;DHT22;31358;46.008;11.144;2022-11-21T13:04:37;8.10;96.90
45643;DHT22;31358;46.008;11.144;2022-11-21T13:07:05;8.00;97.20
45643;DHT22;31358;46.008;11.144;2022-11-21T13:09:39;7.90;97.10
45643;DHT22;31358;46.008;11.144;2022-11-21T13:14:52;7.70;97.60
45643;DHT22;31358;46.008;11.144;2022-11-21T13:25:03;7.40;98.80
45643;DHT22;31358;46.008;11.144;2022-11-21T13:27:37;7.40;99.10
45643;DHT22;31358;46.008;11.144;2022-11-21T13:32:59;7.40;98.70
45643;DHT22;31358;46.008;11.144;2022-11-21T13:38:04;7.50;99.10
45643;DHT22;31358;46.008;11.144;2022-11-21T13:45:43;7.60;98.90
45643;DHT22;31358;46.008;11.144;2022-11-21T13:54:18;7.90;98.50
45643;DHT22;31358;46.008;11.144;2022-11-21T13:57:11;8.10;98.80
45643;DHT22;31358;46.008;11.144;2022-11-21T13:59:54;8.30;98.50
45643;DHT22;31358;46.008;11.144;2022-11-21T14:05:32;8.40;98.20
45643;DHT22;31358;46.008;11.144;2022-11-21T14:07:47;8.40;97.80
45643;DHT22;31358;46.008;11.144;2022-11-21T14:10:32;8.40;97.60
45643;DHT22;31358;46.008;11.144;2022-11-21T14:12:59;8.20;97.60
45643;DHT22;31358;46.008;11.144;2022-11-21T14:18:30;8.40;97.40
45643;DHT22;31358;46.008;11.144;2022-11-21T14:20:58;8.30;97.60
45643;DHT22;31358;46.008;11.144;2022-11-21T14:23:29;8.20;97.50
45643;DHT22;31358;46.008;11.144;2022-11-21T14:26:04;8.30;97.70
45643;DHT22;31358;46.008;11.144;2022-11-21T14:28:35;8.30;97.60
45643;DHT22;31358;46.008;11.144;2022-11-21T14:38:53;8.00;97.70
45643;DHT22;31358;46.008;11.144;2022-11-21T14:41:27;8.00;98.00
45643;DHT22;31358;46.008;11.144;2022-11-21T14:46:29;7.90;98.40
45643;DHT22;31358;46.008;11.144;2022-11-21T14:48:55;7.80;98.30
45643;DHT22;31358;46.008;11.144;2022-11-21T14:51:24;7.80;98.10
45643;DHT22;31358;46.008;11.144;2022-11-21T14:53:53;7.80;98.10
45643;DHT22;31358;46.008;11.144;2022-11-21T14:56:31;7.70;99.00
45643;DHT22;31358;46.008;11.144;2022-11-21T14:59:00;7.60;99.10
45643;DHT22;31358;46.008;11.144;2022-11-21T15:01:31;7.60;99.30
45643;DHT22;31358;46.008;11.144;2022-11-21T15:04:03;7.50;99.30
45643;DHT22;31358;46.008;11.144;2022-11-21T15:06:30;7.40;99.30
45643;DHT22;31358;46.008;11.144;2022-11-21T15:08:58;7.40;99.00
45643;DHT22;31358;46.008;11.144;2022-11-21T15:11:51;7.40;98.80
45643;DHT22;31358;46.008;11.144;2022-11-21T15:16:50;7.40;98.90
45643;DHT22;31358;46.008;11.144;2022-11-21T15:19:24;7.30;99.20
45643;DHT22;31358;46.008;11.144;2022-11-21T15:21:52;7.30;98.90
45643;DHT22;31358;46.008;11.144;2022-11-21T15:35:56;7.20;99.90
45643;DHT22;31358;46.008;11.144;2022-11-21T15:43:49;7.00;99.90
45643;DHT22;31358;46.008;11.144;2022-11-21T15:46:21;6.80;99.90
45643;DHT22;31358;46.008;11.144;2022-11-21T15:48:47;6.90;99.60
45643;DHT22;31358;46.008;11.144;2022-11-21T15:51:15;7.10;98.20
45643;DHT22;31358;46.008;11.144;2022-11-21T15:53:41;7.30;97.40
45643;DHT22;31358;46.008;11.144;2022-11-21T15:56:13;7.40;97.30
45643;DHT22;31358;46.008;11.144;2022-11-21T15:58:39;7.40;97.20
45643;DHT22;31358;46.008;11.144;2022-11-21T16:01:09;7.30;98.70
45643;DHT22;31358;46.008;11.144;2022-11-21T16:03:35;7.00;99.20
45643;DHT22;31358;46.008;11.144;2022-11-21T16:06:01;7.20;97.60
45643;DHT22;31358;46.008;11.144;2022-11-21T16:08:27;7.30;97.10
45643;DHT22;31358;46.008;11.144;2022-11-21T16:10:52;7.30;97.40
45643;DHT22;31358;46.008;11.144;2022-11-21T16:13:18;7.20;98.30
45643;DHT22;31358;46.008;11.144;2022-11-21T16:15:43;7.10;98.50
45643;DHT22;31358;46.008;11.144;2022-11-21T16:18:09;7.10;98.20
45643;DHT22;31358;46.008;11.144;2022-11-21T16:20:35;7.00;98.30
45643;DHT22;31358;46.008;11.144;2022-11-21T16:23:00;7.00;98.30
45643;DHT22;31358;46.008;11.144;2022-11-21T16:25:26;7.00;98.00
45643;DHT22;31358;46.008;11.144;2022-11-21T16:27:52;7.10;97.90
45643;DHT22;31358;46.008;11.144;2022-11-21T16:30:17;7.10;97.90
45643;DHT22;31358;46.008;11.144;2022-11-21T16:32:43;7.00;98.70
45643;DHT22;31358;46.008;11.144;2022-11-21T16:35:09;7.00;98.40
45643;DHT22;31358;46.008;11.144;2022-11-21T16:37:35;6.90;98.00
45643;DHT22;31358;46.008;11.144;2022-11-21T16:40:00;7.00;98.10
45643;DHT22;31358;46.008;11.144;2022-11-21T16:42:26;7.00;98.10
45643;DHT22;31358;46.008;11.144;2022-11-21T16:44:51;6.80;98.90
45643;DHT22;31358;46.008;11.144;2022-11-21T16:47:17;6.70;99.10
45643;DHT22;31358;46.008;11.144;2022-11-21T16:49:45;6.70;99.10
45643;DHT22;31358;46.008;11.144;2022-11-21T16:52:12;6.60;99.10
45643;DHT22;31358;46.008;11.144;2022-11-21T16:54:38;6.70;98.60
45643;DHT22;31358;46.008;11.144;2022-11-21T16:57:04;6.60;98.90
45643;DHT22;31358;46.008;11.144;2022-11-21T16:59:32;6.70;98.60
45643;DHT22;31358;46.008;11.144;2022-11-21T17:01:58;6.60;99.00
45643;DHT22;31358;46.008;11.144;2022-11-21T17:04:24;6.80;98.90
45643;DHT22;31358;46.008;11.144;2022-11-21T17:06:49;6.80;99.40
45643;DHT22;31358;46.008;11.144;2022-11-21T17:09:15;6.90;99.90
45643;DHT22;31358;46.008;11.144;2022-11-21T17:11:41;6.70;99.90
45643;DHT22;31358;46.008;11.144;2022-11-21T17:14:12;6.70;99.90
45643;DHT22;31358;46.008;11.144;2022-11-21T17:16:38;6.70;99.90
45643;DHT22;31358;46.008;11.144;2022-11-21T17:19:05;6.70;99.90
45643;DHT22;31358;46.008;11.144;2022-11-21T17:21:32;6.70;99.90
45643;DHT22;31358;46.008;11.144;2022-11-21T17:23:58;6.70;99.70
45643;DHT22;31358;46.008;11.144;2022-11-21T17:26:26;6.50;99.90
45643;DHT22;31358;46.008;11.144;2022-11-21T17:28:53;6.50;99.80
45643;DHT22;31358;46.008;11.144;2022-11-21T17:31:20;6.60;99.40
45643;DHT22;31358;46.008;11.144;2022-11-21T17:33:45;6.60;99.60
45643;DHT22;31358;46.008;11.144;2022-11-21T17:36:17;6.60;99.60
45643;DHT22;31358;46.008;11.144;2022-11-21T17:38:43;6.70;99.90
45643;DHT22;31358;46.008;11.144;2022-11-21T17:41:11;6.70;99.70
45643;DHT22;31358;46.008;11.144;2022-11-21T17:43:38;6.60;99.80
45643;DHT22;31358;46.008;11.144;2022-11-21T17:46:06;6.60;99.90
45643;DHT22;31358;46.008;11.144;2022-11-21T17:48:34;6.60;99.90
45643;DHT22;31358;46.008;11.144;2022-11-21T17:51:14;6.50;99.90
45643;DHT22;31358;46.008;11.144;2022-11-21T17:53:42;6.60;99.90
45643;DHT22;31358;46.008;11.144;2022-11-21T17:56:16;6.60;99.90
45643;DHT22;31358;46.008;11.144;2022-11-21T17:58:41;6.60;99.90